Time;durP1;ratioP1;P1;durP2;ratioP2;P2;SDS_P1;SDS_P2;PMS_P1;PMS_P2;Temp;Humidity;BMP_temperature;BMP_pressure;BME280_temperature;BME280_humidity;BME280_pressure;Samples;Min_cycle;Max_cycle;Signal;HPM_P1;HPM_P2
2022/02/07 00:02:05;;;;;;;29.92;3.53;;;1.40;99.90;;;;;;5052643;28;20048;-69
2022/02/07 00:04:35;;;;;;;42.65;4.68;;;1.50;99.90;;;;;;5053303;28;20017;-69
2022/02/07 00:07:02;;;;;;;50.35;3.28;;;1.50;99.90;;;;;;5056924;28;20017;-68
2022/02/07 00:09:29;;;;;;;33.75;3.75;;;1.50;99.90;;;;;;5056244;28;20091;-68
2022/02/07 00:11:55;;;;;;;33.70;3.80;;;1.50;99.90;;;;;;5056221;28;20021;-69
2022/02/07 00:14:20;;;;;;;38.78;3.75;;;1.50;99.90;;;;;;5056135;28;20032;-69
2022/02/07 00:16:46;;;;;;;38.00;3.53;;;1.50;99.90;;;;;;5056403;28;20067;-69
2022/02/07 00:19:18;;;;;;;43.20;4.45;;;1.50;99.90;;;;;;5056234;28;20016;-68
2022/02/07 00:21:45;;;;;;;32.97;3.58;;;1.50;99.90;;;;;;5056301;28;20047;-69
2022/02/07 00:24:11;;;;;;;26.30;2.70;;;1.60;99.90;;;;;;5056321;28;20024;-69
2022/02/07 00:26:37;;;;;;;30.63;3.45;;;1.60;99.90;;;;;;5056266;28;20029;-69
2022/02/07 00:29:02;;;;;;;33.03;4.18;;;1.60;99.90;;;;;;5056014;28;20033;-68
2022/02/07 00:31:28;;;;;;;34.00;3.70;;;1.60;99.90;;;;;;5055845;28;20025;-69
2022/02/07 00:33:53;;;;;;;27.88;3.78;;;1.70;99.90;;;;;;5055743;28;20021;-69
2022/02/07 00:36:19;;;;;;;36.88;4.70;;;1.70;99.90;;;;;;5055797;28;20147;-69
2022/02/07 00:38:49;;;;;;;31.92;3.13;;;1.80;99.90;;;;;;5055844;28;20392;-69
2022/02/07 00:41:25;;;;;;;29.67;3.42;;;1.80;99.90;;;;;;5055621;28;20021;-68
2022/02/07 00:43:58;;;;;;;29.65;3.90;;;1.80;99.90;;;;;;5055692;28;20024;-68
2022/02/07 00:46:32;;;;;;;54.30;6.97;;;1.80;99.90;;;;;;5055923;28;20056;-68
2022/02/07 00:48:58;;;;;;;38.97;3.85;;;1.80;99.90;;;;;;5055573;28;20055;-69
2022/02/07 00:51:24;;;;;;;38.42;3.47;;;1.70;99.90;;;;;;5055368;28;20040;-69
2022/02/07 00:53:50;;;;;;;21.55;3.78;;;1.70;99.90;;;;;;5055430;28;20516;-68
2022/02/07 00:56:16;;;;;;;41.42;3.85;;;1.70;99.90;;;;;;5055409;28;20032;-69
2022/02/07 00:58:41;;;;;;;21.60;2.55;;;1.80;99.90;;;;;;5055647;28;20021;-69
2022/02/07 01:01:07;;;;;;;20.60;2.90;;;1.80;99.90;;;;;;5055265;28;20052;-68
2022/02/07 01:03:32;;;;;;;17.55;2.30;;;1.80;99.90;;;;;;5055277;28;20029;-68
2022/02/07 01:05:58;;;;;;;31.38;3.53;;;1.80;99.90;;;;;;5055249;28;20104;-69
2022/02/07 01:08:40;;;;;;;26.45;2.97;;;1.80;99.90;;;;;;5037316;28;20060;-68
2022/02/07 01:11:14;;;;;;;31.83;3.30;;;1.80;99.90;;;;;;5055123;28;20060;-69
2022/02/07 01:16:40;;;;;;;39.63;4.18;;;1.80;99.90;;;;;;5054523;28;20457;-68
2022/02/07 01:19:23;;;;;;;31.73;3.08;;;1.80;99.90;;;;;;5054815;28;20056;-68
2022/02/07 01:51:28;;;;;;;28.98;3.30;;;2.00;99.90;;;;;;5054182;28;20179;-68
2022/02/07 01:56:52;;;;;;;36.67;4.40;;;2.20;99.90;;;;;;4999455;28;20044;-68
2022/02/07 01:59:17;;;;;;;41.22;4.03;;;2.30;99.90;;;;;;5054248;28;20389;-68
2022/02/07 02:01:43;;;;;;;46.55;4.07;;;2.30;99.90;;;;;;5054094;28;20048;-68
2022/02/07 02:04:09;;;;;;;31.67;3.67;;;2.40;99.90;;;;;;5054110;28;20465;-68
2022/02/07 02:06:36;;;;;;;35.88;3.33;;;2.30;99.90;;;;;;5054083;28;20024;-68
2022/02/07 02:09:03;;;;;;;28.92;2.88;;;2.30;99.90;;;;;;5054036;28;20477;-68
2022/02/07 02:11:29;;;;;;;25.55;3.55;;;2.30;99.90;;;;;;5053947;28;20032;-68
2022/02/07 02:16:56;;;;;;;37.42;3.40;;;2.20;99.90;;;;;;5053971;28;20035;-69
2022/02/07 02:34:16;;;;;;;31.27;3.42;;;2.20;99.90;;;;;;5053701;28;20083;-68
2022/02/07 02:45:27;;;;;;;;;;;2.20;99.90;;;;;;5054081;28;20173;-68
2022/02/07 02:46:48;;;;;;;15.80;2.50;;;2.20;99.90;;;;;;5053392;28;20329;-68
2022/02/07 02:49:14;;;;;;;21.63;2.78;;;2.10;99.90;;;;;;5053429;28;20036;-68
2022/02/07 02:51:40;;;;;;;15.40;2.42;;;2.10;99.90;;;;;;5053905;28;20040;-70
2022/02/07 02:54:09;;;;;;;31.15;1.90;;;2.10;99.90;;;;;;5053569;28;20135;-70
2022/02/07 02:56:35;;;;;;;13.13;2.45;;;2.10;99.90;;;;;;5053601;28;20021;-70
2022/02/07 02:59:01;;;;;;;22.42;2.08;;;2.10;99.90;;;;;;5053291;28;20021;-70
2022/02/07 03:01:27;;;;;;;23.92;2.97;;;2.20;99.90;;;;;;5053212;28;20109;-70
2022/02/07 03:03:52;;;;;;;28.45;2.60;;;2.20;99.90;;;;;;5053251;28;20049;-70
2022/02/07 03:06:18;;;;;;;19.35;3.53;;;2.30;99.90;;;;;;5053265;28;20061;-70
2022/02/07 03:08:43;;;;;;;23.63;2.63;;;2.30;99.90;;;;;;5053173;28;20029;-70
2022/02/07 03:11:17;;;;;;;34.00;3.35;;;2.30;99.90;;;;;;5053267;28;20112;-71
2022/02/07 03:19:01;;;;;;;47.38;4.78;;;2.40;99.90;;;;;;5053485;28;20070;-71
2022/02/07 03:21:26;;;;;;;21.58;2.47;;;2.50;99.90;;;;;;5053046;28;20017;-70
2022/02/07 03:23:52;;;;;;;19.48;2.00;;;2.60;99.90;;;;;;5053047;28;20033;-70
2022/02/07 03:26:19;;;;;;;28.02;3.15;;;2.60;99.90;;;;;;5053324;28;20124;-70
2022/02/07 03:28:48;;;;;;;30.30;3.10;;;2.50;99.90;;;;;;5052994;28;20025;-70
2022/02/07 03:31:15;;;;;;;24.40;2.05;;;2.60;99.90;;;;;;5053092;28;20033;-70
2022/02/07 03:33:41;;;;;;;25.30;3.15;;;2.60;99.90;;;;;;5052906;28;20481;-70
2022/02/07 03:36:06;;;;;;;33.03;4.63;;;2.60;99.90;;;;;;5053197;28;20025;-70
2022/02/07 03:38:32;;;;;;;15.38;2.90;;;2.70;99.90;;;;;;5052931;28;20025;-70
2022/02/07 03:40:57;;;;;;;33.60;2.67;;;2.70;99.90;;;;;;5055928;28;20444;-70
2022/02/07 03:43:23;;;;;;;25.05;3.03;;;2.70;99.90;;;;;;5056776;28;20083;-70
2022/02/07 03:45:49;;;;;;;32.58;3.22;;;2.70;99.90;;;;;;5056748;28;20024;-70
2022/02/07 03:48:15;;;;;;;31.88;3.03;;;2.70;99.90;;;;;;5056666;28;20036;-70
2022/02/07 03:50:40;;;;;;;27.73;4.13;;;2.80;99.90;;;;;;5056954;28;20108;-70
2022/02/07 03:53:06;;;;;;;36.55;3.03;;;2.90;99.90;;;;;;5057273;28;20526;-70
2022/02/07 03:55:32;;;;;;;27.80;3.72;;;3.00;99.90;;;;;;5056579;28;20100;-70
2022/02/07 03:57:58;;;;;;;32.95;2.75;;;3.00;99.90;;;;;;5056720;28;20029;-70
2022/02/07 04:00:24;;;;;;;21.88;3.15;;;3.00;99.90;;;;;;5056682;28;20032;-70
2022/02/07 04:02:51;;;;;;;28.48;3.92;;;3.00;99.90;;;;;;5056743;28;20029;-70
2022/02/07 04:07:51;;;;;;;19.83;2.40;;;3.10;99.90;;;;;;5056402;28;20017;-70
2022/02/07 04:10:17;;;;;;;29.63;2.95;;;3.10;99.90;;;;;;5056281;28;20388;-70
2022/02/07 04:12:49;;;;;;;31.45;4.13;;;3.20;99.90;;;;;;5056226;28;20477;-70
2022/02/07 04:15:18;;;;;;;39.03;4.38;;;3.10;99.90;;;;;;5056411;28;20029;-70
2022/02/07 04:17:49;;;;;;;32.78;3.10;;;3.10;99.90;;;;;;5056157;28;20071;-70
2022/02/07 04:20:17;;;;;;;36.97;3.45;;;3.20;99.90;;;;;;5056079;28;20025;-70
2022/02/07 04:22:43;;;;;;;40.47;5.03;;;3.20;99.90;;;;;;5056079;28;20036;-70
2022/02/07 04:25:09;;;;;;;33.53;3.75;;;3.20;99.90;;;;;;5056017;28;20101;-70
2022/02/07 04:27:36;;;;;;;53.00;4.43;;;3.20;99.90;;;;;;5056259;28;20124;-70
2022/02/07 04:30:03;;;;;;;24.13;5.93;;;3.30;99.90;;;;;;5055971;28;20060;-70
2022/02/07 04:32:28;;;;;;;33.42;3.70;;;3.30;99.90;;;;;;5055722;28;20476;-70
2022/02/07 04:34:54;;;;;;;46.92;4.32;;;3.30;99.90;;;;;;5055829;28;20044;-70
2022/02/07 04:37:19;;;;;;;32.30;3.38;;;3.30;99.90;;;;;;5055821;28;20029;-70
2022/02/07 04:39:45;;;;;;;38.03;3.65;;;3.40;99.90;;;;;;5055747;28;20461;-70
2022/02/07 04:42:13;;;;;;;21.75;2.63;;;3.50;99.90;;;;;;5055697;28;20025;-70
2022/02/07 04:52:44;;;;;;;37.13;4.97;;;3.60;99.90;;;;;;5054060;28;19912;-70
2022/02/07 04:58:03;;;;;;;;;;;3.70;99.90;;;;;;5056195;28;20028;-70
2022/02/07 05:00:39;;;;;;;;;;;3.70;99.90;;;;;;5055887;28;19905;-70
2022/02/07 05:03:12;;;;;;;48.03;4.85;;;3.70;99.90;;;;;;5055945;28;19909;-70
2022/02/07 05:13:48;;;;;;;32.17;3.70;;;3.60;99.90;;;;;;5055094;28;20032;-70
2022/02/07 05:16:26;;;;;;;40.03;5.38;;;3.60;99.90;;;;;;5055164;28;20104;-70
2022/02/07 05:18:55;;;;;;;33.00;4.47;;;3.70;99.90;;;;;;5055097;28;20048;-70
2022/02/07 05:21:22;;;;;;;25.83;4.22;;;3.60;99.90;;;;;;5055199;28;20389;-70
2022/02/07 05:23:49;;;;;;;47.90;5.78;;;3.60;99.90;;;;;;5054928;28;20079;-70
2022/02/07 05:26:15;;;;;;;39.83;5.68;;;3.70;99.90;;;;;;5054881;28;20431;-70
2022/02/07 05:28:41;;;;;;;52.90;6.57;;;3.70;99.90;;;;;;5054828;28;20027;-70
2022/02/07 05:31:08;;;;;;;39.35;5.88;;;3.70;99.90;;;;;;5054712;28;20025;-70
2022/02/07 05:33:34;;;;;;;51.78;8.40;;;3.70;99.90;;;;;;5054666;28;20021;-70
2022/02/07 05:35:59;;;;;;;38.47;5.13;;;3.70;99.90;;;;;;5054685;28;20032;-70
2022/02/07 05:38:25;;;;;;;43.35;6.22;;;3.70;99.90;;;;;;5054632;28;20023;-70
2022/02/07 05:40:58;;;;;;;38.92;6.78;;;3.70;99.90;;;;;;5054800;28;20021;-70
2022/02/07 05:43:24;;;;;;;34.17;6.10;;;3.70;99.90;;;;;;5054614;28;20028;-70
2022/02/07 05:45:50;;;;;;;44.15;7.60;;;3.60;99.90;;;;;;5036596;28;20107;-70
2022/02/07 05:48:15;;;;;;;56.10;8.60;;;3.70;99.90;;;;;;5054411;28;20455;-70
2022/02/07 05:50:41;;;;;;;55.25;16.10;;;3.70;99.90;;;;;;5054139;28;20036;-71
2022/02/07 05:53:06;;;;;;;49.88;8.25;;;3.90;99.90;;;;;;5054579;28;20112;-71
2022/02/07 05:55:32;;;;;;;56.65;10.77;;;3.90;99.90;;;;;;5054302;28;20025;-70
2022/02/07 05:57:58;;;;;;;51.75;8.07;;;3.80;99.90;;;;;;5054519;28;20096;-70
2022/02/07 06:00:25;;;;;;;49.40;7.13;;;3.80;99.90;;;;;;5054696;28;20078;-70
2022/02/07 06:02:51;;;;;;;57.40;7.05;;;3.90;99.90;;;;;;5054370;28;20059;-70
2022/02/07 06:05:17;;;;;;;45.95;6.25;;;3.90;99.90;;;;;;5054079;28;20052;-71
2022/02/07 06:07:42;;;;;;;58.67;8.40;;;3.80;99.90;;;;;;5054627;28;20036;-71
2022/02/07 06:10:08;;;;;;;48.42;6.65;;;3.80;99.90;;;;;;5036132;28;20040;-71
2022/02/07 06:12:38;;;;;;;65.20;11.52;;;3.80;99.90;;;;;;5054043;28;20389;-71
2022/02/07 06:15:05;;;;;;;53.53;7.80;;;3.80;99.90;;;;;;5053949;28;20052;-71
2022/02/07 06:17:30;;;;;;;52.95;6.78;;;3.70;99.90;;;;;;5054482;28;20419;-71
2022/02/07 06:19:58;;;;;;;73.68;8.20;;;3.60;99.90;;;;;;5054405;28;20098;-71
2022/02/07 06:22:24;;;;;;;56.88;8.07;;;3.60;99.90;;;;;;5054328;28;20378;-71
2022/02/07 06:24:49;;;;;;;54.85;7.65;;;3.70;99.90;;;;;;5053764;28;20021;-71
2022/02/07 06:27:15;;;;;;;75.90;10.15;;;3.70;99.90;;;;;;5054277;28;20021;-71
2022/02/07 06:29:42;;;;;;;61.70;13.80;;;3.70;99.90;;;;;;5053713;28;20051;-71
2022/02/07 06:32:08;;;;;;;58.10;8.88;;;3.80;99.90;;;;;;5053616;28;20045;-70
2022/02/07 06:34:33;;;;;;;66.13;8.32;;;3.80;99.90;;;;;;5053580;28;20017;-70
2022/02/07 06:36:59;;;;;;;61.45;7.70;;;4.00;99.90;;;;;;5053581;28;20434;-70
2022/02/07 06:39:26;;;;;;;56.30;8.50;;;4.00;99.90;;;;;;5053565;28;20025;-70
2022/02/07 06:41:53;;;;;;;58.45;8.90;;;4.00;99.90;;;;;;5053392;28;20557;-70
2022/02/07 06:44:18;;;;;;;48.78;8.75;;;3.90;99.90;;;;;;5053517;28;20095;-70
2022/02/07 06:46:44;;;;;;;59.28;10.40;;;3.80;99.90;;;;;;5053481;28;20117;-70
2022/02/07 06:49:10;;;;;;;49.78;7.68;;;3.70;99.90;;;;;;5053713;28;20024;-70
2022/02/07 06:51:36;;;;;;;68.88;7.72;;;3.70;99.90;;;;;;5053220;28;20040;-70
2022/02/07 06:54:02;;;;;;;57.58;10.73;;;3.60;99.90;;;;;;5053542;28;20068;-70
2022/02/07 06:56:27;;;;;;;89.95;11.43;;;3.60;99.90;;;;;;5053588;28;20017;-70
2022/02/07 06:58:53;;;;;;;71.10;10.05;;;3.60;99.90;;;;;;5053281;28;20029;-70
2022/02/07 07:01:19;;;;;;;88.15;15.75;;;3.60;99.90;;;;;;5053716;28;20028;-70
2022/02/07 07:03:45;;;;;;;72.13;12.05;;;3.60;99.90;;;;;;5053512;28;20037;-70
2022/02/07 07:06:12;;;;;;;76.20;12.00;;;3.60;99.90;;;;;;5053228;28;20063;-70
2022/02/07 07:08:43;;;;;;;62.03;10.15;;;3.70;99.90;;;;;;5053269;28;20025;-70
2022/02/07 07:11:11;;;;;;;113.30;18.00;;;3.70;99.90;;;;;;5053672;28;20025;-70
2022/02/07 07:13:45;;;;;;;85.22;10.70;;;3.70;99.90;;;;;;5035251;28;20032;-70
2022/02/07 07:16:36;;;;;;;87.93;14.20;;;3.80;99.90;;;;;;5057326;28;20017;-70
2022/02/07 07:19:00;;;;;;;78.00;10.45;;;3.80;99.90;;;;;;5057048;28;20073;-70
2022/02/07 07:21:26;;;;;;;52.75;7.75;;;3.70;99.90;;;;;;5057138;28;20541;-70
2022/02/07 07:23:53;;;;;;;91.82;17.70;;;3.80;99.90;;;;;;5057177;28;20024;-70
2022/02/07 07:26:20;;;;;;;109.55;21.85;;;3.70;99.90;;;;;;5057141;28;20481;-70
2022/02/07 07:28:47;;;;;;;59.47;9.43;;;3.70;99.90;;;;;;5057073;28;20021;-70
2022/02/07 07:31:14;;;;;;;57.97;9.88;;;3.70;99.90;;;;;;5057259;28;20032;-70
2022/02/07 07:33:41;;;;;;;94.32;18.83;;;3.70;99.90;;;;;;5056946;28;20025;-70
2022/02/07 07:36:07;;;;;;;70.43;8.88;;;3.70;99.90;;;;;;5057230;28;20071;-70
2022/02/07 07:38:33;;;;;;;56.22;8.52;;;3.60;99.90;;;;;;5057197;28;20025;-70
2022/02/07 07:40:58;;;;;;;44.92;7.53;;;3.60;99.90;;;;;;5056850;28;20381;-69
2022/02/07 07:43:25;;;;;;;82.00;7.60;;;3.70;99.90;;;;;;5056888;28;20389;-69
2022/02/07 07:46:03;;;;;;;80.75;9.75;;;3.70;99.90;;;;;;5056861;28;20561;-69
2022/02/07 07:48:30;;;;;;;73.25;10.32;;;3.80;99.90;;;;;;5057039;28;20525;-69
2022/02/07 07:51:06;;;;;;;55.28;10.23;;;3.90;99.90;;;;;;5056458;28;20035;-69
2022/02/07 08:04:21;;;;;;;63.28;9.45;;;4.30;99.90;;;;;;5056998;28;20032;-69
2022/02/07 08:07:14;;;;;;;67.78;9.13;;;4.30;99.90;;;;;;5056362;28;20017;-69
2022/02/07 08:12:00;;;;;;;69.75;13.70;;;4.20;99.90;;;;;;5056532;28;20029;-69
2022/02/07 08:14:28;;;;;;;59.13;9.85;;;4.10;99.90;;;;;;5056543;28;20021;-69
2022/02/07 08:16:54;;;;;;;58.55;8.38;;;3.90;99.90;;;;;;5056222;28;20070;-69
2022/02/07 08:19:21;;;;;;;44.58;8.90;;;3.80;99.90;;;;;;5056207;28;20032;-69
2022/02/07 08:21:47;;;;;;;58.95;7.75;;;3.80;99.90;;;;;;5056081;28;20104;-69
2022/02/07 08:24:13;;;;;;;61.35;7.10;;;3.80;99.90;;;;;;5056059;28;20063;-69
2022/02/07 08:26:40;;;;;;;54.10;7.40;;;3.90;99.90;;;;;;5055763;28;20029;-69
2022/02/07 08:29:06;;;;;;;55.92;7.13;;;3.90;99.90;;;;;;5056000;28;20388;-69
2022/02/07 08:31:32;;;;;;;47.55;6.18;;;4.00;99.90;;;;;;5056048;28;20052;-69
2022/02/07 08:33:58;;;;;;;54.65;7.03;;;4.00;99.90;;;;;;5055835;28;20056;-69
2022/02/07 08:36:23;;;;;;;49.00;6.95;;;4.10;99.90;;;;;;5038832;28;20018;-69
2022/02/07 08:38:49;;;;;;;41.70;9.52;;;4.10;99.90;;;;;;5056081;28;20127;-69
2022/02/07 08:41:15;;;;;;;54.50;14.30;;;4.20;99.90;;;;;;5055684;28;20495;-69
2022/02/07 08:43:40;;;;;;;65.53;8.07;;;4.20;99.90;;;;;;5055697;28;20393;-69
2022/02/07 08:46:06;;;;;;;51.17;6.97;;;4.20;99.90;;;;;;5055961;28;20111;-69
2022/02/07 08:48:32;;;;;;;58.35;7.50;;;4.30;99.90;;;;;;5055859;28;20024;-69
2022/02/07 08:50:57;;;;;;;48.75;7.20;;;4.50;99.90;;;;;;5056168;28;20067;-69
2022/02/07 08:53:26;;;;;;;50.22;7.05;;;4.60;99.90;;;;;;5037646;28;20029;-69
2022/02/07 08:55:52;;;;;;;53.90;7.28;;;4.70;99.90;;;;;;5055513;28;20028;-69
2022/02/07 08:58:22;;;;;;;48.05;8.38;;;4.80;99.90;;;;;;5055458;28;20017;-69
2022/02/07 09:03:56;;;;;;;62.40;5.60;;;5.00;99.90;;;;;;5055672;28;20029;-69
2022/02/07 09:07:05;;;;;;;65.43;9.00;;;5.20;99.90;;;;;;5054643;28;20033;-69
2022/02/07 09:09:19;;;;;;;38.63;6.90;;;5.20;99.90;;;;;;5033503;28;20067;-69
2022/02/07 09:11:45;;;;;;;50.40;7.18;;;5.10;99.90;;;;;;5055263;28;20032;-69
2022/02/07 09:14:18;;;;;;;58.70;9.05;;;5.00;99.90;;;;;;5055079;28;20029;-69
2022/02/07 09:16:44;;;;;;;54.75;8.32;;;5.00;99.90;;;;;;5055534;28;20020;-69
2022/02/07 09:19:10;;;;;;;55.45;7.85;;;5.00;99.90;;;;;;5055597;28;20094;-69
2022/02/07 09:21:36;;;;;;;51.65;7.82;;;5.00;99.90;;;;;;5054945;28;20531;-69
2022/02/07 09:24:03;;;;;;;47.78;6.65;;;5.00;99.90;;;;;;5055241;28;20087;-69
2022/02/07 09:26:29;;;;;;;51.95;7.70;;;5.10;99.90;;;;;;5054979;28;20029;-69
2022/02/07 09:28:55;;;;;;;39.15;6.72;;;5.20;99.90;;;;;;5054903;28;20545;-69
2022/02/07 09:31:23;;;;;;;33.35;5.13;;;5.20;99.90;;;;;;5055315;28;20029;-69
2022/02/07 09:33:51;;;;;;;32.55;5.88;;;5.20;99.90;;;;;;5054672;28;20035;-69
2022/02/07 09:36:17;;;;;;;46.40;7.18;;;5.30;99.90;;;;;;5054706;28;20087;-69
2022/02/07 09:38:44;;;;;;;30.60;5.60;;;5.30;99.90;;;;;;5053981;28;20021;-69
2022/02/07 09:41:10;;;;;;;37.80;5.82;;;5.40;99.90;;;;;;5054574;28;20053;-69
2022/02/07 09:43:43;;;;;;;53.45;6.82;;;5.40;99.90;;;;;;5054600;28;20155;-69
2022/02/07 09:46:18;;;;;;;46.88;6.18;;;5.40;99.90;;;;;;5054872;28;20488;-69
2022/02/07 09:48:44;;;;;;;48.60;6.30;;;5.50;99.90;;;;;;5055091;28;20033;-69
2022/02/07 09:51:12;;;;;;;32.28;5.63;;;5.50;99.90;;;;;;5054450;28;20033;-69
2022/02/07 09:53:38;;;;;;;61.00;6.85;;;5.50;99.90;;;;;;5054286;28;20035;-69
2022/02/07 09:56:06;;;;;;;65.60;9.02;;;5.60;99.90;;;;;;5054401;28;20021;-69
2022/02/07 09:58:37;;;;;;;35.45;5.65;;;5.60;99.90;;;;;;5054562;28;20021;-69
2022/02/07 10:01:06;;;;;;;54.35;8.10;;;5.60;99.90;;;;;;5054196;28;20021;-69
2022/02/07 10:37:48;;;;;;;29.42;3.72;;;5.00;99.90;;;;;;5054271;28;20527;-69
2022/02/07 10:40:22;;;;;;;21.63;3.30;;;4.80;99.90;;;;;;5053373;28;20393;-69
2022/02/07 10:46:19;;;;;;;23.38;4.75;;;4.90;99.90;;;;;;5053584;28;20393;-69
2022/02/07 10:48:52;;;;;;;22.95;3.90;;;5.00;99.90;;;;;;5052892;28;20497;-69
2022/02/07 10:51:25;;;;;;;35.38;3.83;;;5.30;99.90;;;;;;5053400;28;20033;-69
2022/02/07 10:53:54;;;;;;;38.75;5.13;;;5.40;99.90;;;;;;5053351;28;20021;-69
2022/02/07 10:56:30;;;;;;;40.03;5.55;;;5.50;99.90;;;;;;5035547;28;20400;-69
2022/02/07 10:58:57;;;;;;;41.22;5.93;;;5.60;99.90;;;;;;5053643;28;20028;-69
2022/02/07 11:04:13;;;;;;;53.42;6.25;;;5.80;99.90;;;;;;5053404;28;20063;-69
2022/02/07 11:06:45;;;;;;;41.13;6.05;;;5.80;99.90;;;;;;5053562;28;20025;-69
2022/02/07 11:19:42;;;;;;;36.05;6.05;;;6.20;99.90;;;;;;5053441;28;20108;-69
2022/02/07 11:27:34;;;;;;;44.15;6.13;;;6.40;99.90;;;;;;5053394;28;20091;-70
2022/02/07 11:30:01;;;;;;;52.20;6.97;;;6.40;99.90;;;;;;5053123;28;20021;-70
2022/02/07 11:35:41;;;;;;;48.38;7.57;;;6.50;99.90;;;;;;5052964;28;20366;-70
2022/02/07 11:38:06;;;;;;;55.38;8.07;;;6.50;99.90;;;;;;5008601;28;20033;-70
2022/02/07 11:40:41;;;;;;;38.72;7.30;;;6.60;99.90;;;;;;5052870;28;20044;-70
2022/02/07 11:43:08;;;;;;;57.00;7.45;;;6.60;99.90;;;;;;5052887;28;20025;-70
2022/02/07 11:45:50;;;;;;;53.10;8.13;;;6.60;99.90;;;;;;5053152;28;20351;-70
2022/02/07 11:48:35;;;;;;;48.40;7.70;;;6.60;99.90;;;;;;5052839;28;20585;-70
2022/02/07 11:51:13;;;;;;;58.10;7.68;;;6.60;99.90;;;;;;5052798;28;20039;-70
2022/02/07 11:53:58;;;;;;;48.50;7.57;;;6.60;99.90;;;;;;5053056;28;20029;-70
2022/02/07 11:56:33;;;;;;;50.55;7.80;;;6.60;99.90;;;;;;5053415;28;20517;-70
2022/02/07 11:59:01;;;;;;;51.75;7.68;;;6.70;99.90;;;;;;5052772;28;20071;-70
2022/02/07 12:02:03;;;;;;;70.15;7.88;;;6.70;99.90;;;;;;5054809;28;20021;-70
2022/02/07 12:04:42;;;;;;;50.80;7.50;;;6.90;99.90;;;;;;4956346;29;20050;-70
2022/02/07 12:07:11;;;;;;;47.90;7.13;;;6.90;99.90;;;;;;5045567;28;20033;-70
2022/02/07 12:09:38;;;;;;;52.08;7.63;;;6.90;99.90;;;;;;5056413;28;20100;-70
2022/02/07 12:12:05;;;;;;;56.13;6.80;;;7.00;99.90;;;;;;5056277;28;20025;-70
2022/02/07 12:14:36;;;;;;;51.47;7.82;;;6.90;99.90;;;;;;5056215;28;20048;-70
2022/02/07 12:17:03;;;;;;;64.30;9.73;;;6.90;99.90;;;;;;5056281;28;20527;-70
2022/02/07 12:19:38;;;;;;;56.08;7.15;;;7.00;99.90;;;;;;5056770;28;20511;-70
2022/02/07 12:22:13;;;;;;;52.58;7.75;;;7.00;99.90;;;;;;5056621;28;20017;-70
2022/02/07 12:24:58;;;;;;;63.00;8.63;;;6.70;99.90;;;;;;5056134;28;20113;-70
2022/02/07 12:27:26;;;;;;;56.80;7.03;;;6.70;99.90;;;;;;5056374;28;20029;-70
2022/02/07 12:32:36;;;;;;;61.30;8.75;;;6.90;99.90;;;;;;5056450;28;20082;-70
2022/02/07 12:35:04;;;;;;;51.25;6.82;;;7.00;99.90;;;;;;5056196;28;20016;-70
2022/02/07 12:37:34;;;;;;;45.97;7.10;;;7.00;99.90;;;;;;5055880;28;20485;-70
2022/02/07 12:40:04;;;;;;;35.72;6.70;;;6.90;99.90;;;;;;5055906;28;20036;-70
2022/02/07 12:42:34;;;;;;;43.60;6.22;;;6.70;99.90;;;;;;5038154;28;20062;-70
2022/02/07 12:45:00;;;;;;;53.10;7.60;;;6.70;99.90;;;;;;5055723;28;20386;-70
2022/02/07 12:47:26;;;;;;;58.13;8.88;;;6.70;99.90;;;;;;5055641;28;20032;-70
2022/02/07 12:49:55;;;;;;;60.72;8.23;;;7.00;99.90;;;;;;5037772;28;20029;-70
2022/02/07 12:52:32;;;;;;;58.83;7.75;;;7.10;99.90;;;;;;5055451;28;20033;-70
2022/02/07 12:54:58;;;;;;;58.08;9.18;;;7.40;99.90;;;;;;5056117;28;20449;-70
2022/02/07 12:57:24;;;;;;;40.10;7.75;;;7.60;99.90;;;;;;5055595;28;20017;-70
2022/02/07 12:59:53;;;;;;;44.30;5.82;;;7.70;99.90;;;;;;5055423;28;20029;-70
2022/02/07 13:02:27;;;;;;;46.15;6.68;;;7.70;99.90;;;;;;5055346;28;20025;-70
2022/02/07 13:04:53;;;;;;;50.05;7.22;;;7.60;99.90;;;;;;5055680;28;20493;-70
2022/02/07 13:07:20;;;;;;;51.60;7.78;;;7.80;99.90;;;;;;5055489;28;20032;-70
2022/02/07 13:09:52;;;;;;;43.95;7.10;;;8.10;99.90;;;;;;5055291;28;20021;-70
2022/02/07 13:12:34;;;;;;;34.95;6.55;;;8.00;99.90;;;;;;5054360;28;20029;-70
2022/02/07 13:15:01;;;;;;;35.50;5.82;;;8.00;99.90;;;;;;5055180;28;20049;-70
2022/02/07 13:17:28;;;;;;;49.75;6.70;;;8.00;99.90;;;;;;5055674;28;20457;-70
2022/02/07 13:19:54;;;;;;;47.88;6.10;;;8.20;99.90;;;;;;5055337;28;20062;-70
2022/02/07 13:22:22;;;;;;;44.33;6.80;;;8.10;99.90;;;;;;5054996;28;20024;-70
2022/02/07 13:24:55;;;;;;;43.72;5.75;;;8.10;99.90;;;;;;5054951;28;20048;-70
2022/02/07 13:27:21;;;;;;;32.72;5.95;;;8.20;99.90;;;;;;5055010;28;20035;-70
2022/02/07 13:29:54;;;;;;;39.63;6.05;;;8.20;99.90;;;;;;5054892;28;20017;-70
2022/02/07 13:32:28;;;;;;;33.70;5.97;;;8.20;99.90;;;;;;5055004;28;20025;-70
2022/02/07 13:35:11;;;;;;;48.92;6.90;;;8.20;99.90;;;;;;5055050;28;20071;-70
2022/02/07 13:37:39;;;;;;;57.08;7.28;;;8.20;99.90;;;;;;5055052;28;20477;-70
2022/02/07 13:40:10;;;;;;;39.83;6.95;;;8.10;99.90;;;;;;5054691;28;20401;-70
2022/02/07 13:42:39;;;;;;;44.70;7.15;;;8.00;99.90;;;;;;5054891;28;20135;-70
2022/02/07 13:45:13;;;;;;;35.35;6.90;;;7.60;99.90;;;;;;5054604;28;20071;-70
2022/02/07 13:47:43;;;;;;;51.40;7.00;;;7.70;99.90;;;;;;5054838;28;20013;-70
2022/02/07 13:50:15;;;;;;;68.75;7.95;;;7.70;99.90;;;;;;5054656;28;20547;-70
2022/02/07 13:52:44;;;;;;;58.25;10.07;;;7.60;99.90;;;;;;5054731;28;20115;-70
2022/02/07 13:55:15;;;;;;;36.00;6.32;;;7.50;99.90;;;;;;5054406;28;20021;-70
2022/02/07 13:57:49;;;;;;;44.75;6.10;;;7.40;99.90;;;;;;5054356;28;20021;-70
2022/02/07 14:00:15;;;;;;;44.80;7.43;;;7.40;99.90;;;;;;5054538;28;20464;-70
2022/02/07 14:02:41;;;;;;;45.85;6.05;;;7.30;99.90;;;;;;5054841;28;20021;-70
2022/02/07 14:05:07;;;;;;;62.75;6.75;;;7.10;99.90;;;;;;5036370;28;20028;-70
2022/02/07 14:07:51;;;;;;;64.38;7.97;;;6.80;99.90;;;;;;5054201;28;20048;-70
2022/02/07 14:10:21;;;;;;;53.65;7.68;;;6.40;99.90;;;;;;5054375;28;20013;-70
2022/02/07 14:12:47;;;;;;;50.15;9.13;;;6.10;99.90;;;;;;5053977;28;20063;-70
2022/02/07 14:15:13;;;;;;;65.53;8.02;;;6.20;99.90;;;;;;5054058;28;20056;-70
2022/02/07 14:17:44;;;;;;;74.72;9.50;;;6.10;99.90;;;;;;5053966;28;20024;-70
2022/02/07 14:20:13;;;;;;;56.00;7.18;;;6.00;99.90;;;;;;5054252;28;20518;-70
2022/02/07 14:22:38;;;;;;;79.50;11.85;;;6.00;99.90;;;;;;5054149;28;20021;-70
2022/02/07 14:25:07;;;;;;;51.22;7.43;;;6.30;99.90;;;;;;5054110;28;20047;-70
2022/02/07 14:27:32;;;;;;;55.78;7.07;;;6.30;99.90;;;;;;5054101;28;20534;-70
2022/02/07 14:29:58;;;;;;;62.83;8.15;;;6.40;99.90;;;;;;5053767;28;20104;-70
2022/02/07 14:32:24;;;;;;;65.88;8.60;;;6.50;99.90;;;;;;5053653;28;20021;-70
2022/02/07 14:34:49;;;;;;;62.60;9.93;;;6.70;99.90;;;;;;5053611;28;20492;-70
2022/02/07 14:37:15;;;;;;;53.70;6.53;;;6.90;99.90;;;;;;5053649;28;20497;-69
2022/02/07 14:39:40;;;;;;;54.80;8.25;;;6.80;99.90;;;;;;5053599;28;20021;-69
2022/02/07 14:42:07;;;;;;;60.20;8.13;;;6.90;99.90;;;;;;5053961;28;20021;-69
2022/02/07 14:44:43;;;;;;;75.07;11.57;;;6.80;99.90;;;;;;5035680;28;20035;-69
2022/02/07 14:47:14;;;;;;;77.38;10.88;;;6.50;99.90;;;;;;5053785;28;20021;-69
2022/02/07 14:49:40;;;;;;;43.17;7.88;;;6.50;99.90;;;;;;5053747;28;20031;-70
2022/02/07 14:52:05;;;;;;;53.10;8.32;;;6.60;99.90;;;;;;5053783;28;20041;-69
2022/02/07 14:54:34;;;;;;;54.05;7.97;;;6.70;99.90;;;;;;5053865;28;20029;-69
2022/02/07 14:57:00;;;;;;;41.80;5.78;;;6.70;99.90;;;;;;5053377;28;20036;-69
2022/02/07 14:59:26;;;;;;;56.00;6.97;;;6.70;99.90;;;;;;5053873;28;20029;-69
2022/02/07 15:01:53;;;;;;;48.95;6.80;;;6.70;99.90;;;;;;5053243;28;20017;-69
2022/02/07 15:04:20;;;;;;;50.58;7.38;;;6.60;99.90;;;;;;5053288;28;20033;-69
2022/02/07 15:06:46;;;;;;;52.40;6.28;;;6.50;99.90;;;;;;5053310;28;20029;-69
2022/02/07 15:09:12;;;;;;;56.78;6.55;;;6.40;99.90;;;;;;5053251;28;20028;-69
2022/02/07 15:11:37;;;;;;;53.88;7.47;;;6.30;99.90;;;;;;5053115;28;20039;-69
2022/02/07 15:14:03;;;;;;;51.58;7.78;;;6.30;99.90;;;;;;5053351;28;20048;-69
2022/02/07 15:16:28;;;;;;;55.28;6.65;;;6.20;99.90;;;;;;5053430;28;20025;-69
2022/02/07 15:18:55;;;;;;;51.00;6.32;;;6.20;99.90;;;;;;5053113;28;20143;-69
2022/02/07 15:21:22;;;;;;;55.38;8.60;;;6.00;99.90;;;;;;5053355;28;20592;-69
2022/02/07 15:23:51;;;;;;;57.88;8.27;;;5.90;99.90;;;;;;5053086;28;20075;-69
2022/02/07 15:26:20;;;;;;;55.95;8.63;;;5.90;99.90;;;;;;5053060;28;20033;-69
2022/02/07 15:28:48;;;;;;;47.70;7.85;;;5.80;99.90;;;;;;5053218;28;20045;-69
2022/02/07 15:31:14;;;;;;;65.22;8.55;;;5.70;99.90;;;;;;5053144;28;20021;-69
2022/02/07 15:33:43;;;;;;;48.53;7.07;;;5.70;99.90;;;;;;5052917;28;20021;-69
2022/02/07 15:36:09;;;;;;;41.22;6.20;;;5.60;99.90;;;;;;5054703;28;20090;-69
2022/02/07 15:38:36;;;;;;;49.75;8.95;;;5.70;99.90;;;;;;5056972;28;20032;-69